Time;durP1;ratioP1;P1;durP2;ratioP2;P2;SDS_P1;SDS_P2;PMS_P1;PMS_P2;Temp;Humidity;BMP_temperature;BMP_pressure;BME280_temperature;BME280_humidity;BME280_pressure;Samples;Min_cycle;Max_cycle;Signal;HPM_P1;HPM_P2
2022/07/20 00:04:12;;;;;;;3.03;2.33;;;;;;;21.58;51.51;100267.09;10503864;28;20051;-71
2022/07/20 00:14:34;;;;;;;4.30;2.17;;;;;;;21.73;50.88;100269.56;10484260;28;20048;-71
2022/07/20 00:19:36;;;;;;;4.05;2.03;;;;;;;21.62;50.12;100270.38;10502104;28;20071;-72
2022/07/20 00:24:37;;;;;;;2.72;2.45;;;;;;;21.38;51.12;100268.56;10503492;28;20130;-72
2022/07/20 00:29:39;;;;;;;3.85;2.22;;;;;;;21.11;52.08;100270.50;10500643;28;20068;-71
2022/07/20 00:34:41;;;;;;;4.55;2.22;;;;;;;21.14;51.99;100259.59;10488398;28;20131;-72
2022/07/20 00:39:43;;;;;;;2.38;2.00;;;;;;;21.12;51.71;100261.53;10508891;28;20036;-72
2022/07/20 00:44:44;;;;;;;4.65;2.10;;;;;;;20.97;51.75;100257.28;10509448;28;20051;-72
2022/07/20 00:49:46;;;;;;;2.90;1.92;;;;;;;20.80;53.17;100250.47;10508376;28;20040;-72
2022/07/20 00:54:48;;;;;;;2.88;1.90;;;;;;;20.96;52.06;100247.56;10508975;28;20040;-72
2022/07/20 00:59:50;;;;;;;3.53;2.20;;;;;;;20.84;53.01;100254.63;10508267;28;20040;-72
2022/07/20 01:04:51;;;;;;;2.35;1.85;;;;;;;20.65;52.81;100261.28;10508261;28;20045;-72
2022/07/20 01:09:53;;;;;;;2.35;1.80;;;;;;;20.88;52.38;100248.94;10508461;28;20047;-72
2022/07/20 01:14:55;;;;;;;4.90;2.47;;;;;;;20.65;54.15;100255.06;10488056;28;20051;-73
2022/07/20 01:19:57;;;;;;;3.03;2.28;;;;;;;20.79;52.33;100248.75;10506927;28;20051;-71
2022/07/20 01:24:59;;;;;;;3.17;2.13;;;;;;;20.82;51.76;100248.53;10505548;28;20044;-72
2022/07/20 01:30:01;;;;;;;3.33;2.17;;;;;;;20.63;51.77;100254.34;10487891;28;20059;-71
2022/07/20 01:35:03;;;;;;;3.25;2.20;;;;;;;20.40;53.35;100256.72;10503177;28;20044;-72
2022/07/20 01:40:05;;;;;;;3.53;2.38;;;;;;;20.36;54.81;100255.25;10506092;28;20047;-71
2022/07/20 01:45:07;;;;;;;5.30;2.53;;;;;;;20.47;52.88;100262.53;10505038;28;20040;-71
2022/07/20 01:50:09;;;;;;;8.50;2.78;;;;;;;20.37;53.15;100264.13;10508043;28;20138;-72
2022/07/20 01:55:11;;;;;;;3.42;1.98;;;;;;;20.08;53.51;100261.59;10504811;28;20049;-72
2022/07/20 02:00:13;;;;;;;4.53;2.28;;;;;;;20.05;53.94;100259.13;10504618;28;20482;-72
2022/07/20 02:05:22;;;;;;;4.97;3.10;;;;;;;19.86;55.27;100261.34;10486741;28;20071;-72
2022/07/20 02:10:24;;;;;;;3.08;2.25;;;;;;;19.83;55.25;100264.22;10503565;28;20040;-72
2022/07/20 02:20:46;;;;;;;3.25;2.17;;;;;;;19.89;54.72;100259.34;10503576;28;20037;-71
2022/07/20 02:25:48;;;;;;;2.72;1.90;;;;;;;19.76;55.20;100257.59;10485119;28;20136;-71
2022/07/20 02:30:49;;;;;;;2.90;2.50;;;;;;;19.67;55.48;100264.38;10503544;28;20037;-71
2022/07/20 02:35:51;;;;;;;3.10;2.17;;;;;;;19.57;55.98;100266.78;10505505;28;20044;-71
2022/07/20 02:40:53;;;;;;;4.07;2.28;;;;;;;19.73;55.29;100271.13;10486495;28;20468;-71
2022/07/20 02:45:55;;;;;;;4.10;2.70;;;;;;;19.70;54.99;100266.84;10484693;28;20044;-71
2022/07/20 02:50:58;;;;;;;2.78;2.45;;;;;;;19.65;54.96;100267.13;10485024;28;20044;-72
2022/07/20 02:55:59;;;;;;;3.95;2.40;;;;;;;19.60;55.15;100261.25;10485578;28;20071;-72
2022/07/20 03:01:01;;;;;;;3.40;2.75;;;;;;;19.52;55.53;100265.34;10503206;28;20090;-71
2022/07/20 03:06:03;;;;;;;3.47;2.28;;;;;;;19.60;55.08;100273.69;10484316;28;20512;-71
2022/07/20 03:11:05;;;;;;;3.13;2.20;;;;;;;19.58;55.43;100271.16;10484028;28;20051;-71
2022/07/20 03:16:07;;;;;;;4.65;2.78;;;;;;;19.62;55.14;100274.50;10501984;28;20045;-71
2022/07/20 03:21:09;;;;;;;4.00;2.22;;;;;;;19.68;55.06;100275.91;10503631;28;20036;-71
2022/07/20 03:26:11;;;;;;;3.05;2.00;;;;;;;19.70;54.61;100280.19;10500368;28;20047;-71
2022/07/20 03:31:12;;;;;;;6.60;3.13;;;;;;;19.84;54.39;100269.47;10503921;28;20037;-72
2022/07/20 03:36:14;;;;;;;3.20;2.42;;;;;;;19.79;54.20;100276.91;10502617;28;20045;-70
2022/07/20 03:41:16;;;;;;;5.50;2.70;;;;;;;19.78;54.50;100277.84;10503280;28;20055;-72
2022/07/20 03:46:18;;;;;;;3.08;2.55;;;;;;;19.79;54.79;100284.91;10502904;28;20044;-71
2022/07/20 03:51:20;;;;;;;4.55;2.20;;;;;;;19.92;54.32;100284.94;10501289;28;20064;-71
2022/07/20 03:56:24;;;;;;;3.13;2.45;;;;;;;19.96;54.69;100288.25;10500767;28;20049;-71
2022/07/20 04:01:25;;;;;;;3.13;2.22;;;;;;;20.19;54.20;100284.03;10504697;28;20556;-72
2022/07/20 04:06:28;;;;;;;3.33;2.50;;;;;;;20.10;54.61;100288.22;10503984;28;20071;-71
2022/07/20 04:11:30;;;;;;;7.28;2.80;;;;;;;20.36;54.97;100286.41;10492371;28;20510;-71
2022/07/20 04:16:32;;;;;;;5.72;2.97;;;;;;;20.41;55.03;100285.16;10491191;28;20040;-71
2022/07/20 04:21:33;;;;;;;7.30;3.65;;;;;;;20.45;54.81;100285.78;10487858;28;20044;-71
2022/07/20 04:26:36;;;;;;;6.65;3.42;;;;;;;20.37;56.23;100291.69;10505960;28;20041;-71
2022/07/20 04:31:37;;;;;;;5.53;2.75;;;;;;;20.29;56.07;100294.00;10505756;28;20047;-71
2022/07/20 04:36:39;;;;;;;3.95;2.92;;;;;;;20.75;55.66;100295.34;10504349;28;20044;-72
2022/07/20 04:41:41;;;;;;;4.93;3.35;;;;;;;20.72;55.29;100303.56;10504348;28;20040;-71
2022/07/20 04:46:43;;;;;;;6.15;2.60;;;;;;;21.05;54.11;100301.19;10505981;28;20127;-71
2022/07/20 04:51:45;;;;;;;4.32;2.85;;;;;;;21.16;54.00;100295.97;10503773;28;20044;-72
2022/07/20 04:56:47;;;;;;;6.45;3.33;;;;;;;21.20;53.82;100301.91;10503093;28;20044;-72
2022/07/20 05:01:49;;;;;;;4.40;2.95;;;;;;;21.46;52.13;100300.06;10504376;28;20037;-72
2022/07/20 05:06:51;;;;;;;3.65;2.88;;;;;;;21.47;52.50;100299.13;10504798;28;20104;-72
2022/07/20 05:11:52;;;;;;;7.32;2.80;;;;;;;21.65;51.56;100302.28;10486213;28;20443;-72
2022/07/20 05:16:54;;;;;;;5.95;2.88;;;;;;;21.58;52.39;100292.97;10503106;28;20052;-72
2022/07/20 05:21:57;;;;;;;3.97;2.40;;;;;;;22.20;51.26;100300.84;10502581;28;20048;-72
2022/07/20 05:26:58;;;;;;;7.32;2.58;;;;;;;22.50;48.25;100305.69;10502681;28;20441;-72
2022/07/20 05:32:00;;;;;;;5.20;2.80;;;;;;;22.72;47.95;100301.34;10503506;28;20045;-72
2022/07/20 05:37:02;;;;;;;4.82;2.13;;;;;;;22.85;47.47;100297.56;10485165;28;20048;-71
2022/07/20 05:42:03;;;;;;;5.57;2.20;;;;;;;23.19;45.25;100294.06;10502178;28;20493;-71
2022/07/20 05:47:09;;;;;;;6.55;2.10;;;;;;;23.57;44.78;100299.84;10502018;28;20044;-72
2022/07/20 05:52:11;;;;;;;7.90;2.38;;;;;;;23.88;44.11;100303.56;10504384;28;20045;-69
2022/07/20 05:57:13;;;;;;;4.22;2.15;;;;;;;24.59;42.61;100300.31;10483531;28;20123;-69
2022/07/20 06:02:14;;;;;;;4.47;1.75;;;;;;;25.09;41.69;100301.31;10483494;28;20049;-70
2022/07/20 06:07:16;;;;;;;4.25;2.20;;;;;;;25.93;40.13;100303.66;10483026;28;20055;-69
2022/07/20 06:12:18;;;;;;;3.42;1.90;;;;;;;26.46;38.78;100289.78;10484350;28;20044;-69
2022/07/20 06:17:20;;;;;;;4.10;2.25;;;;;;;26.99;38.15;100291.88;10500204;28;20429;-69
2022/07/20 06:22:21;;;;;;;4.22;1.90;;;;;;;27.17;37.00;100292.81;10515943;22;20036;-71
2022/07/20 06:27:23;;;;;;;3.28;2.10;;;;;;;27.66;37.05;100295.25;10483708;28;20540;-71
2022/07/20 06:32:25;;;;;;;5.13;1.92;;;;;;;28.20;36.06;100303.41;10482233;28;20044;-72
2022/07/20 06:37:27;;;;;;;3.33;2.17;;;;;;;28.25;35.63;100309.22;10483760;28;20052;-72
2022/07/20 06:42:29;;;;;;;4.57;2.05;;;;;;;28.71;35.51;100313.47;10500459;28;20094;-72
2022/07/20 06:47:31;;;;;;;9.73;2.10;;;;;;;28.60;35.30;100313.75;10500229;28;20036;-71
2022/07/20 06:52:33;;;;;;;2.25;1.83;;;;;;;29.34;35.26;100310.44;10500068;28;20132;-71
2022/07/20 06:57:35;;;;;;;2.92;1.80;;;;;;;29.58;33.74;100303.44;10481907;28;20064;-72
2022/07/20 07:02:37;;;;;;;2.55;1.60;;;;;;;29.67;33.63;100298.91;10500314;28;20064;-71
2022/07/20 07:07:39;;;;;;;6.00;2.47;;;;;;;29.90;33.08;100299.97;10499974;28;20040;-72
2022/07/20 07:12:41;;;;;;;4.07;2.03;;;;;;;30.84;31.85;100304.03;10500614;28;20105;-72
2022/07/20 07:17:42;;;;;;;4.22;2.45;;;;;;;31.14;32.06;100292.41;10500374;28;20040;-71
2022/07/20 07:22:44;;;;;;;4.82;1.95;;;;;;;31.54;30.94;100293.25;10499590;28;20136;-71
2022/07/20 07:27:46;;;;;;;5.38;2.00;;;;;;;31.32;31.53;100300.34;10482749;28;20045;-73
2022/07/20 07:32:48;;;;;;;2.85;1.95;;;;;;;31.43;31.11;100298.25;10499919;28;20064;-72
2022/07/20 07:37:49;;;;;;;7.15;2.25;;;;;;;31.51;30.46;100304.47;10500221;28;20037;-71
2022/07/20 07:42:51;;;;;;;7.20;4.35;;;;;;;32.10;29.99;100303.97;10503386;28;20391;-71
2022/07/20 07:47:53;;;;;;;7.70;2.20;;;;;;;32.41;29.89;100317.53;10490267;28;20048;-71
2022/07/20 07:52:54;;;;;;;5.72;2.15;;;;;;;32.57;30.00;100311.06;10507270;28;20048;-72
2022/07/20 07:57:57;;;;;;;5.15;1.90;;;;;;;32.74;29.39;100301.72;10507177;28;20528;-70
2022/07/20 08:03:06;;;;;;;8.20;2.60;;;;;;;32.82;29.27;100298.06;10507882;28;20097;-71
2022/07/20 08:08:11;;;;;;;4.13;1.80;;;;;;;33.31;29.11;100294.78;10507742;28;20045;-72
2022/07/20 08:13:13;;;;;;;5.43;1.70;;;;;;;33.72;28.36;100283.34;10489193;28;20048;-72
2022/07/20 08:18:15;;;;;;;5.65;2.13;;;;;;;33.68;28.10;100276.56;10506942;28;20405;-72
2022/07/20 08:23:17;;;;;;;3.72;1.95;;;;;;;33.69;28.31;100272.81;10507132;28;20048;-72
2022/07/20 08:28:21;;;;;;;7.65;1.92;;;;;;;34.04;27.38;100277.38;10506318;28;20040;-72
2022/07/20 08:33:23;;;;;;;6.05;1.83;;;;;;;34.43;27.48;100272.47;10506807;28;20044;-72
2022/07/20 08:38:24;;;;;;;6.80;2.75;;;;;;;34.32;26.30;100269.25;10505973;28;20043;-71
2022/07/20 08:43:26;;;;;;;4.80;1.42;;;;;;;34.81;26.33;100265.63;10504877;28;20036;-70
2022/07/20 08:48:28;;;;;;;9.32;2.65;;;;;;;34.80;25.60;100266.69;10487196;28;20052;-71
2022/07/20 08:53:30;;;;;;;12.23;1.63;;;;;;;35.02;25.58;100258.41;10505046;28;20040;-71
2022/07/20 08:58:32;;;;;;;5.97;1.33;;;;;;;35.35;24.89;100256.66;10504415;28;20055;-71
2022/07/20 09:03:33;;;;;;;3.67;1.27;;;;;;;35.71;24.80;100260.16;10505360;28;20036;-72
2022/07/20 09:08:35;;;;;;;5.35;1.40;;;;;;;36.02;24.64;100254.97;10505195;28;20044;-72
2022/07/20 09:13:41;;;;;;;5.45;1.85;;;;;;;36.11;24.32;100253.72;10487006;28;20044;-71
2022/07/20 09:18:42;;;;;;;3.92;1.35;;;;;;;36.19;24.07;100255.41;10505457;28;20093;-71
2022/07/20 09:23:54;;;;;;;4.78;1.73;;;;;;;36.58;22.53;100245.50;10505474;28;20050;-71
2022/07/20 09:28:57;;;;;;;3.20;1.10;;;;;;;36.68;22.15;100236.84;10486250;28;20071;-71
2022/07/20 09:34:03;;;;;;;2.70;1.40;;;;;;;36.73;21.31;100242.53;10503667;28;20065;-71
2022/07/20 09:39:18;;;;;;;3.47;1.17;;;;;;;37.10;21.41;100243.69;10504929;28;20393;-70
2022/07/20 09:44:21;;;;;;;2.30;1.38;;;;;;;37.38;20.59;100221.44;10503240;28;20055;-71
2022/07/20 09:49:34;;;;;;;4.15;1.50;;;;;;;37.20;20.61;100227.63;10503274;28;20051;-71
2022/07/20 09:54:36;;;;;;;3.13;1.48;;;;;;;37.76;20.80;100228.78;10502999;28;20040;-71
2022/07/20 09:59:39;;;;;;;3.00;1.50;;;;;;;38.15;20.64;100229.59;10502770;28;20047;-71
2022/07/20 10:04:40;;;;;;;6.65;1.27;;;;;;;38.16;20.63;100223.03;10483339;28;20053;-71
2022/07/20 10:09:42;;;;;;;2.42;1.30;;;;;;;38.19;20.00;100228.91;10502068;28;20123;-71
2022/07/20 10:14:46;;;;;;;2.00;1.23;;;;;;;38.13;19.72;100218.00;10484977;28;20045;-71
2022/07/20 10:19:47;;;;;;;5.18;1.27;;;;;;;38.51;19.50;100218.69;10483448;28;20490;-71
2022/07/20 10:25:25;;;;;;;2.75;1.23;;;;;;;38.85;18.94;100221.94;10501661;28;20046;-71
2022/07/20 10:30:27;;;;;;;3.53;1.40;;;;;;;38.66;20.03;100212.84;10374009;28;20072;-72
2022/07/20 10:35:30;;;;;;;3.70;1.10;;;;;;;38.85;20.49;100217.28;10374795;28;20076;-70
2022/07/20 10:41:31;;;;;;;3.33;1.30;;;;;;;38.91;19.63;100207.28;10374888;28;20076;-72
2022/07/20 10:45:54;;;;;;;3.58;1.45;;;;;;;38.76;20.24;100206.81;10373783;28;20058;-71
2022/07/20 10:50:56;;;;;;;7.18;1.10;;;;;;;38.86;19.43;100201.63;10373612;28;20140;-72
2022/07/20 10:56:03;;;;;;;6.05;2.42;;;;;;;39.37;18.26;100202.28;10372394;28;20046;-72
2022/07/20 11:01:13;;;;;;;3.42;1.42;;;;;;;39.23;18.99;100201.63;10407253;28;20041;-71
2022/07/20 11:06:20;;;;;;;4.63;1.67;;;;;;;39.33;18.22;100201.91;10501850;28;20051;-72
2022/07/20 11:11:34;;;;;;;2.92;1.73;;;;;;;38.96;18.89;100196.47;10542969;28;20032;-72
2022/07/20 11:16:38;;;;;;;2.70;2.17;;;;;;;38.78;18.37;100199.19;10542158;28;20101;-73
2022/07/20 11:21:43;;;;;;;4.05;1.30;;;;;;;39.22;18.42;100188.94;10541856;28;20354;-72
2022/07/20 11:26:44;;;;;;;3.97;1.25;;;;;;;39.49;17.96;100187.50;10525087;28;20051;-71
2022/07/20 11:31:54;;;;;;;5.20;1.60;;;;;;;39.47;17.98;100186.88;10543110;28;20123;-71
2022/07/20 11:36:59;;;;;;;4.22;1.33;;;;;;;38.80;17.40;100175.94;10542053;28;20424;-71
2022/07/20 11:42:10;;;;;;;2.00;1.23;;;;;;;38.77;18.38;100178.28;10541802;28;20044;-71
2022/07/20 11:47:12;;;;;;;4.53;1.40;;;;;;;38.83;19.40;100180.97;10543055;28;20555;-71
2022/07/20 11:52:13;;;;;;;2.10;1.35;;;;;;;39.38;18.09;100176.47;10542707;28;20070;-70
2022/07/20 11:57:15;;;;;;;6.68;1.20;;;;;;;39.52;18.72;100170.50;10543406;28;20048;-71
2022/07/20 12:02:17;;;;;;;3.45;1.40;;;;;;;39.47;18.53;100167.63;10543122;28;20048;-70
2022/07/20 12:13:06;;;;;;;3.73;1.37;;;;;;;38.32;18.23;100170.31;10543366;28;20055;-70
2022/07/20 12:18:08;;;;;;;2.28;1.20;;;;;;;38.46;18.81;100158.13;10543774;28;20046;-71
2022/07/20 12:23:09;;;;;;;6.05;1.63;;;;;;;38.36;19.08;100153.16;10516427;22;20057;-69
2022/07/20 12:28:11;;;;;;;4.07;2.13;;;;;;;38.46;18.63;100152.63;10502697;28;20402;-70
2022/07/20 12:33:33;;;;;;;4.47;1.90;;;;;;;38.75;18.62;100155.69;10505717;28;20098;-70
2022/07/20 12:38:35;;;;;;;5.82;1.17;;;;;;;39.30;17.71;100153.72;10504627;28;20405;-70
2022/07/20 12:43:41;;;;;;;2.95;1.35;;;;;;;38.75;18.16;100140.03;10504169;28;20036;-70
2022/07/20 12:48:46;;;;;;;2.83;1.30;;;;;;;38.49;19.02;100137.63;10506063;28;20041;-69
2022/07/20 12:53:48;;;;;;;2.42;1.30;;;;;;;38.00;19.57;100125.66;10486198;28;20493;-69
2022/07/20 12:58:50;;;;;;;2.47;1.58;;;;;;;37.96;19.29;100129.91;10503861;28;20050;-69
2022/07/20 13:03:54;;;;;;;3.60;1.63;;;;;;;37.54;19.76;100110.38;10504482;28;20494;-70
2022/07/20 13:08:55;;;;;;;2.05;1.23;;;;;;;37.14;20.03;100113.38;10504465;28;20402;-70
2022/07/20 13:13:57;;;;;;;4.05;1.33;;;;;;;36.83;19.95;100111.41;10504483;28;20055;-71
2022/07/20 13:18:59;;;;;;;3.60;1.30;;;;;;;36.87;19.92;100110.75;10503674;28;20524;-69
2022/07/20 13:24:00;;;;;;;3.75;1.65;;;;;;;37.37;19.97;100105.44;10504369;28;20410;-70
2022/07/20 13:29:03;;;;;;;1.55;1.08;;;;;;;37.49;19.55;100099.25;10503425;28;20037;-70
2022/07/20 13:34:05;;;;;;;3.45;1.48;;;;;;;37.98;19.72;100094.81;10503514;28;20045;-69
2022/07/20 13:39:06;;;;;;;2.03;1.20;;;;;;;38.35;19.39;100079.28;10483393;28;20056;-69
2022/07/20 13:44:08;;;;;;;3.30;1.27;;;;;;;38.46;19.95;100070.25;10501975;28;20044;-69
2022/07/20 13:49:10;;;;;;;5.18;1.52;;;;;;;38.27;20.04;100057.56;10502291;28;20098;-69
2022/07/20 13:54:12;;;;;;;3.10;1.40;;;;;;;37.73;20.17;100067.41;10502450;28;20055;-70
2022/07/20 13:59:14;;;;;;;4.88;1.50;;;;;;;37.33;20.37;100062.25;10502677;28;20037;-69
2022/07/20 14:04:16;;;;;;;3.67;1.45;;;;;;;37.54;20.77;100061.03;10502451;28;20044;-69
2022/07/20 14:09:18;;;;;;;1.98;1.10;;;;;;;37.80;20.31;100066.25;10503197;28;20128;-70
2022/07/20 14:14:21;;;;;;;2.05;1.20;;;;;;;37.78;20.37;100051.13;10483359;28;20045;-71
2022/07/20 14:19:23;;;;;;;3.63;1.92;;;;;;;37.72;20.89;100041.91;10502031;28;20125;-70
2022/07/20 14:24:25;;;;;;;3.80;1.40;;;;;;;37.48;21.27;100045.47;10501134;28;20045;-70
2022/07/20 14:29:26;;;;;;;2.25;1.38;;;;;;;37.42;20.70;100057.34;10482945;28;20047;-71
2022/07/20 14:34:28;;;;;;;2.78;1.20;;;;;;;37.30;21.24;100047.06;10500849;28;20037;-70
2022/07/20 14:39:30;;;;;;;3.88;1.33;;;;;;;37.19;21.00;100042.31;10501021;28;20128;-71
2022/07/20 14:44:32;;;;;;;4.55;1.35;;;;;;;37.29;20.91;100025.38;10500778;28;20040;-71
2022/07/20 14:49:34;;;;;;;3.83;1.55;;;;;;;37.55;20.63;100027.91;10499853;28;20040;-70
2022/07/20 14:54:36;;;;;;;2.38;1.20;;;;;;;37.63;20.07;100013.06;10482559;28;20048;-71
2022/07/20 14:59:38;;;;;;;4.50;1.40;;;;;;;37.93;20.58;100015.09;10500707;28;20049;-69
2022/07/20 15:04:40;;;;;;;2.90;1.40;;;;;;;38.38;19.93;100018.38;10502493;28;20058;-71
2022/07/20 15:09:41;;;;;;;2.75;1.40;;;;;;;38.57;19.39;100000.81;10499728;28;20123;-71
2022/07/20 15:14:44;;;;;;;3.50;1.40;;;;;;;38.80;19.71;100002.00;10499175;28;20074;-70
2022/07/20 15:19:45;;;;;;;4.65;1.33;;;;;;;38.85;20.08;100008.44;10499658;28;20037;-71
2022/07/20 15:24:47;;;;;;;3.95;1.48;;;;;;;38.19;20.36;100008.47;10499856;28;20120;-70
2022/07/20 15:29:49;;;;;;;2.80;1.30;;;;;;;38.36;19.76;100004.06;10498947;28;20046;-70
2022/07/20 15:34:51;;;;;;;6.82;1.38;;;;;;;38.27;20.01;99995.28;10499122;28;20055;-71
2022/07/20 15:39:52;;;;;;;3.28;1.42;;;;;;;38.46;20.11;99998.84;10480546;28;20144;-71
2022/07/20 15:44:54;;;;;;;2.78;1.40;;;;;;;38.78;19.31;99990.38;10497782;28;20075;-71
2022/07/20 15:49:56;;;;;;;3.20;1.65;;;;;;;38.67;19.91;99988.44;10481846;28;20050;-71
2022/07/20 15:54:58;;;;;;;2.78;1.60;;;;;;;38.42;19.34;99983.91;10499981;28;20051;-71
2022/07/20 16:00:00;;;;;;;3.30;1.30;;;;;;;37.92;19.90;99988.75;10499027;28;20045;-71
2022/07/20 16:05:02;;;;;;;3.78;1.20;;;;;;;37.31;20.51;99982.13;10503764;28;20112;-70
2022/07/20 16:10:05;;;;;;;7.03;1.63;;;;;;;37.13;21.06;99988.38;10508209;28;20048;-71
2022/07/20 16:15:07;;;;;;;2.85;1.23;;;;;;;36.90;21.09;99990.88;10507306;28;20111;-70
2022/07/20 16:20:11;;;;;;;3.38;1.50;;;;;;;37.04;21.00;99985.09;10489383;28;20060;-71
2022/07/20 16:25:12;;;;;;;4.28;1.30;;;;;;;36.93;21.56;99999.50;10489143;28;20087;-70
2022/07/20 16:30:23;;;;;;;3.15;1.50;;;;;;;36.91;20.87;99978.84;10490850;28;20516;-71
2022/07/20 16:35:25;;;;;;;4.05;1.52;;;;;;;36.43;21.38;99982.88;10507751;28;20045;-70
2022/07/20 16:40:27;;;;;;;3.92;1.30;;;;;;;36.41;21.48;99984.19;10506676;28;20067;-70
2022/07/20 16:45:28;;;;;;;6.88;1.55;;;;;;;36.23;21.57;99984.91;10506750;28;20045;-70
2022/07/20 16:50:30;;;;;;;3.20;1.00;;;;;;;35.93;21.75;99981.81;10505876;28;20062;-70
2022/07/20 16:55:32;;;;;;;2.70;1.23;;;;;;;35.72;22.21;99969.25;10505698;28;20087;-70
2022/07/20 17:00:34;;;;;;;3.50;1.40;;;;;;;35.61;22.06;99963.41;10503819;28;20036;-70
2022/07/20 17:05:36;;;;;;;2.17;1.30;;;;;;;35.47;22.51;99960.91;10503798;28;20041;-69
2022/07/20 17:10:38;;;;;;;5.22;1.35;;;;;;;35.47;22.44;99955.44;10504309;28;20110;-69
2022/07/20 17:15:40;;;;;;;2.60;1.63;;;;;;;35.27;22.70;99952.69;10503879;28;20506;-71
2022/07/20 17:20:42;;;;;;;3.72;1.10;;;;;;;35.03;22.67;99948.72;10503154;28;20486;-71
2022/07/20 17:25:43;;;;;;;3.08;2.00;;;;;;;34.82;22.88;99947.81;10502349;28;20044;-71
2022/07/20 17:30:45;;;;;;;4.90;1.50;;;;;;;34.79;23.73;99942.75;10502855;28;20079;-70
2022/07/20 17:35:47;;;;;;;1.95;1.35;;;;;;;34.55;23.75;99951.56;10502501;28;20040;-69
2022/07/20 17:40:49;;;;;;;2.22;1.30;;;;;;;34.47;23.43;99957.22;10503276;28;20440;-70
2022/07/20 17:45:51;;;;;;;2.78;1.50;;;;;;;34.41;23.92;99947.09;10501678;28;20051;-70
2022/07/20 17:50:53;;;;;;;4.38;1.40;;;;;;;34.11;24.42;99944.69;10501910;28;20043;-71
2022/07/20 17:55:55;;;;;;;8.95;1.15;;;;;;;33.94;24.49;99943.31;10502241;28;20452;-69
2022/07/20 18:00:56;;;;;;;5.20;1.20;;;;;;;33.83;25.07;99950.19;10484403;28;20055;-69
2022/07/20 18:05:59;;;;;;;3.95;1.50;;;;;;;33.72;24.92;99943.41;10522545;28;20039;-71
2022/07/20 18:11:00;;;;;;;4.65;1.45;;;;;;;33.54;25.13;99938.47;10516672;28;20129;-71
2022/07/20 18:16:05;;;;;;;3.65;1.48;;;;;;;33.40;25.51;99942.16;10543990;28;20154;-70
2022/07/20 18:21:06;;;;;;;4.40;1.33;;;;;;;33.24;25.55;99953.34;10543440;28;20071;-70
2022/07/20 18:26:10;;;;;;;1.80;1.00;;;;;;;33.06;26.30;99951.09;10523837;28;20048;-71
2022/07/20 18:31:12;;;;;;;2.78;1.80;;;;;;;32.85;26.57;99950.06;10541500;28;20036;-71
2022/07/20 18:36:14;;;;;;;2.38;1.60;;;;;;;32.63;27.31;99945.66;10542077;28;20052;-71
2022/07/20 18:41:16;;;;;;;2.60;1.50;;;;;;;32.29;27.88;99949.03;10528745;28;20036;-71
2022/07/20 18:46:17;;;;;;;5.40;2.15;;;;;;;31.89;28.77;99951.25;10513642;28;20053;-71
2022/07/20 18:51:19;;;;;;;3.55;1.45;;;;;;;31.71;28.96;99951.59;10523458;28;20047;-70
2022/07/20 18:56:21;;;;;;;4.53;1.50;;;;;;;31.55;29.39;99946.34;10535535;28;20075;-71
2022/07/20 19:01:29;;;;;;;4.90;2.20;;;;;;;31.31;30.08;99958.31;10518248;28;20048;-71
2022/07/20 19:06:32;;;;;;;5.05;1.83;;;;;;;31.10;30.71;99962.53;10541545;28;20051;-71
2022/07/20 19:11:33;;;;;;;2.75;1.55;;;;;;;30.84;31.77;99959.38;10543066;28;20032;-70
2022/07/20 19:16:35;;;;;;;2.47;1.60;;;;;;;30.60;32.55;99958.50;10541464;28;20449;-71
2022/07/20 19:21:37;;;;;;;3.92;1.77;;;;;;;30.38;33.30;99954.75;10540672;28;20047;-70
2022/07/20 19:26:39;;;;;;;3.55;1.80;;;;;;;30.15;33.84;99957.41;10540829;28;20122;-71
2022/07/20 19:31:41;;;;;;;6.30;2.28;;;;;;;30.11;34.12;99963.34;10542746;28;20067;-70
2022/07/20 19:36:43;;;;;;;4.15;1.85;;;;;;;29.62;35.23;99966.22;10526385;28;20079;-71
2022/07/20 19:41:44;;;;;;;4.03;1.90;;;;;;;29.35;36.38;99957.44;10551900;28;20048;-72
2022/07/20 19:46:46;;;;;;;3.13;1.88;;;;;;;29.08;36.23;99957.78;10549249;28;20539;-70
2022/07/20 19:51:48;;;;;;;3.25;2.25;;;;;;;28.85;36.40;99946.78;10550170;28;20044;-70
2022/07/20 19:56:51;;;;;;;3.08;1.77;;;;;;;28.79;36.78;99945.59;10551558;28;20044;-69
2022/07/20 20:01:52;;;;;;;4.80;2.15;;;;;;;28.43;37.68;99939.66;10548775;28;20072;-72
2022/07/20 20:06:54;;;;;;;4.60;3.00;;;;;;;28.21;37.87;99932.97;10530211;28;20131;-71
2022/07/20 20:11:56;;;;;;;2.92;2.28;;;;;;;28.11;38.18;99940.34;10548134;28;20040;-72
2022/07/20 20:16:58;;;;;;;3.83;2.00;;;;;;;28.05;38.03;99949.97;10548823;28;20040;-71
2022/07/20 20:22:00;;;;;;;3.45;2.40;;;;;;;28.01;38.73;99951.31;10548730;28;20043;-70
2022/07/20 20:27:02;;;;;;;3.30;2.03;;;;;;;27.65;38.93;99948.75;10550008;28;20044;-70
2022/07/20 20:32:04;;;;;;;5.93;2.22;;;;;;;27.54;39.54;99943.63;10548646;28;20486;-71
2022/07/20 20:37:06;;;;;;;2.95;1.90;;;;;;;27.33;40.01;99941.31;10549404;28;20040;-70
2022/07/20 20:42:08;;;;;;;3.25;2.00;;;;;;;27.28;40.56;99937.41;10549923;28;20135;-70
2022/07/20 20:47:10;;;;;;;2.15;1.85;;;;;;;27.22;40.30;99932.63;10530227;28;20048;-71
2022/07/20 20:52:12;;;;;;;3.92;2.30;;;;;;;27.02;40.82;99940.88;10547887;28;20040;-70
2022/07/20 20:57:16;;;;;;;4.47;2.42;;;;;;;27.09;40.59;99938.44;10547622;28;20044;-71
2022/07/20 21:02:17;;;;;;;3.42;1.90;;;;;;;27.00;40.67;99950.13;10529944;28;20075;-70
2022/07/20 21:07:19;;;;;;;3.42;2.08;;;;;;;26.71;41.62;99958.50;10546544;28;20044;-70
2022/07/20 21:12:23;;;;;;;4.07;2.03;;;;;;;26.84;40.87;99961.66;10545836;28;20074;-71
2022/07/20 21:17:25;;;;;;;3.47;2.00;;;;;;;26.65;40.82;99959.94;10545273;28;20048;-71
2022/07/20 21:22:26;;;;;;;4.03;2.13;;;;;;;26.51;40.99;99968.56;10546567;28;20123;-71
2022/07/20 21:27:28;;;;;;;3.95;1.80;;;;;;;26.28;42.06;99970.81;10545321;28;20498;-71
2022/07/20 21:32:30;;;;;;;2.65;1.83;;;;;;;25.98;42.62;99962.03;10545750;28;20040;-71
2022/07/20 21:37:32;;;;;;;4.88;2.13;;;;;;;26.01;42.56;99964.44;10545371;28;20055;-71
2022/07/20 21:42:33;;;;;;;4.05;2.17;;;;;;;25.95;43.01;99974.97;10545329;28;20036;-71
2022/07/20 21:47:35;;;;;;;3.90;2.47;;;;;;;25.73;43.18;99985.09;10546400;28;20131;-71
2022/07/20 21:52:37;;;;;;;4.22;2.50;;;;;;;25.87;42.60;99983.78;10546463;28;20043;-72
2022/07/20 21:57:38;;;;;;;2.90;2.60;;;;;;;25.77;42.72;99991.91;10526853;28;20120;-71
2022/07/20 22:02:40;;;;;;;3.55;2.65;;;;;;;25.52;43.13;99996.03;10543956;28;20040;-70
2022/07/20 22:07:42;;;;;;;3.58;2.40;;;;;;;25.28;44.02;99999.22;10546150;28;20048;-71
2022/07/20 22:12:44;;;;;;;2.72;2.30;;;;;;;25.26;44.15;100003.88;10543095;28;20485;-71
2022/07/20 22:17:46;;;;;;;6.05;2.78;;;;;;;25.31;44.52;99996.22;10525902;28;20066;-71
2022/07/20 22:22:48;;;;;;;3.10;2.22;;;;;;;24.92;44.86;100004.31;10543113;28;20040;-71
2022/07/20 22:27:50;;;;;;;6.32;3.08;;;;;;;24.91;45.87;99989.16;10543413;28;20127;-71
2022/07/20 22:32:52;;;;;;;4.97;2.05;;;;;;;24.98;45.32;99992.13;10526030;28;20054;-70
2022/07/20 22:37:54;;;;;;;2.63;2.42;;;;;;;24.81;45.91;99999.06;10525991;28;20470;-71
2022/07/20 22:42:56;;;;;;;4.10;2.60;;;;;;;24.55;46.26;100006.81;10532374;28;20048;-71
2022/07/20 22:47:58;;;;;;;3.20;1.92;;;;;;;24.36;46.55;99999.53;10544666;28;20040;-71
2022/07/20 22:53:00;;;;;;;2.17;1.90;;;;;;;24.22;46.83;100004.47;10548887;28;20055;-70
2022/07/20 22:58:02;;;;;;;4.88;2.10;;;;;;;24.07;46.96;99996.75;10529297;28;20131;-70
2022/07/20 23:03:04;;;;;;;2.55;2.33;;;;;;;24.00;47.21;99992.94;10546878;28;20096;-70
2022/07/20 23:08:05;;;;;;;2.97;2.00;;;;;;;23.98;46.99;99986.84;10547221;28;20563;-70
2022/07/20 23:13:07;;;;;;;4.28;2.05;;;;;;;24.06;47.49;99987.00;10546292;28;20039;-70
2022/07/20 23:18:09;;;;;;;3.92;2.15;;;;;;;24.08;47.21;99982.38;10544608;28;20066;-71
2022/07/20 23:23:12;;;;;;;3.25;1.75;;;;;;;23.97;47.32;99974.41;10544121;28;20052;-71
2022/07/20 23:28:14;;;;;;;2.75;2.00;;;;;;;24.06;47.42;99954.78;10544200;28;20040;-70
2022/07/20 23:33:16;;;;;;;5.20;2.03;;;;;;;24.01;47.60;99948.97;10543844;28;20050;-71